sensor_id;sensor_type;location;lat;lon;timestamp;P1;durP1;ratioP1;P2;durP2;ratioP2
8407;SDS011;4241;48.452;9.216;2023-04-01T00:00:24;426.07;;;124.27;;
8407;SDS011;4241;48.452;9.216;2023-04-01T00:02:51;427.13;;;125.10;;
8407;SDS011;4241;48.452;9.216;2023-04-01T00:05:17;428.67;;;125.70;;
8407;SDS011;4241;48.452;9.216;2023-04-01T00:07:44;427.07;;;125.87;;
8407;SDS011;4241;48.452;9.216;2023-04-01T00:10:12;426.57;;;123.90;;
8407;SDS011;4241;48.452;9.216;2023-04-01T00:12:40;427.10;;;125.43;;
8407;SDS011;4241;48.452;9.216;2023-04-01T00:15:09;426.30;;;124.67;;
8407;SDS011;4241;48.452;9.216;2023-04-01T00:17:37;426.33;;;124.03;;
8407;SDS011;4241;48.452;9.216;2023-04-01T00:20:05;427.13;;;125.07;;
8407;SDS011;4241;48.452;9.216;2023-04-01T00:22:33;431.33;;;130.13;;
8407;SDS011;4241;48.452;9.216;2023-04-01T00:25:00;428.27;;;125.30;;
8407;SDS011;4241;48.452;9.216;2023-04-01T00:27:27;424.80;;;123.43;;
8407;SDS011;4241;48.452;9.216;2023-04-01T00:29:54;426.00;;;123.57;;
8407;SDS011;4241;48.452;9.216;2023-04-01T00:32:22;426.07;;;123.93;;
8407;SDS011;4241;48.452;9.216;2023-04-01T00:34:49;428.00;;;126.07;;
8407;SDS011;4241;48.452;9.216;2023-04-01T00:37:17;426.47;;;125.27;;
8407;SDS011;4241;48.452;9.216;2023-04-01T00:39:44;427.40;;;124.43;;
8407;SDS011;4241;48.452;9.216;2023-04-01T00:42:12;426.03;;;124.73;;
8407;SDS011;4241;48.452;9.216;2023-04-01T00:44:39;427.00;;;123.87;;
8407;SDS011;4241;48.452;9.216;2023-04-01T00:47:06;424.50;;;123.10;;
8407;SDS011;4241;48.452;9.216;2023-04-01T00:49:35;426.77;;;125.33;;
8407;SDS011;4241;48.452;9.216;2023-04-01T00:52:05;425.50;;;123.73;;
8407;SDS011;4241;48.452;9.216;2023-04-01T00:54:34;426.27;;;124.07;;
8407;SDS011;4241;48.452;9.216;2023-04-01T00:57:03;425.37;;;123.80;;
8407;SDS011;4241;48.452;9.216;2023-04-01T00:59:34;424.23;;;123.17;;
8407;SDS011;4241;48.452;9.216;2023-04-01T01:02:05;426.67;;;123.47;;
8407;SDS011;4241;48.452;9.216;2023-04-01T01:04:37;425.20;;;122.80;;
8407;SDS011;4241;48.452;9.216;2023-04-01T01:07:08;426.33;;;123.87;;
8407;SDS011;4241;48.452;9.216;2023-04-01T01:09:46;423.60;;;121.90;;
8407;SDS011;4241;48.452;9.216;2023-04-01T01:12:23;424.07;;;122.77;;
8407;SDS011;4241;48.452;9.216;2023-04-01T01:14:57;424.63;;;122.83;;
8407;SDS011;4241;48.452;9.216;2023-04-01T01:17:35;424.17;;;122.83;;
8407;SDS011;4241;48.452;9.216;2023-04-01T01:26:37;423.27;;;121.07;;
8407;SDS011;4241;48.452;9.216;2023-04-01T01:29:16;422.63;;;121.53;;
8407;SDS011;4241;48.452;9.216;2023-04-01T01:31:56;423.17;;;122.13;;
8407;SDS011;4241;48.452;9.216;2023-04-01T01:34:32;423.30;;;121.40;;
8407;SDS011;4241;48.452;9.216;2023-04-01T01:37:08;423.83;;;122.27;;
8407;SDS011;4241;48.452;9.216;2023-04-01T01:39:39;422.40;;;121.03;;
8407;SDS011;4241;48.452;9.216;2023-04-01T01:42:09;423.97;;;123.00;;
8407;SDS011;4241;48.452;9.216;2023-04-01T01:44:41;423.47;;;121.57;;
8407;SDS011;4241;48.452;9.216;2023-04-01T01:47:10;423.60;;;122.27;;
8407;SDS011;4241;48.452;9.216;2023-04-01T01:49:38;425.67;;;123.97;;
8407;SDS011;4241;48.452;9.216;2023-04-01T01:52:09;422.83;;;121.57;;
8407;SDS011;4241;48.452;9.216;2023-04-01T01:54:36;425.13;;;122.30;;
8407;SDS011;4241;48.452;9.216;2023-04-01T01:57:12;423.77;;;122.73;;
8407;SDS011;4241;48.452;9.216;2023-04-01T01:59:40;424.63;;;122.83;;
8407;SDS011;4241;48.452;9.216;2023-04-01T02:02:09;423.67;;;122.27;;
8407;SDS011;4241;48.452;9.216;2023-04-01T02:04:38;424.27;;;123.17;;
8407;SDS011;4241;48.452;9.216;2023-04-01T02:07:08;423.93;;;122.60;;
8407;SDS011;4241;48.452;9.216;2023-04-01T02:09:40;426.27;;;124.77;;
8407;SDS011;4241;48.452;9.216;2023-04-01T02:12:08;423.57;;;122.63;;
8407;SDS011;4241;48.452;9.216;2023-04-01T02:14:39;423.93;;;122.00;;
8407;SDS011;4241;48.452;9.216;2023-04-01T02:17:10;439.27;;;135.67;;
8407;SDS011;4241;48.452;9.216;2023-04-01T02:19:41;425.47;;;123.37;;
8407;SDS011;4241;48.452;9.216;2023-04-01T02:22:14;422.43;;;121.37;;
8407;SDS011;4241;48.452;9.216;2023-04-01T02:24:45;425.37;;;122.97;;
8407;SDS011;4241;48.452;9.216;2023-04-01T02:27:14;425.17;;;123.37;;
8407;SDS011;4241;48.452;9.216;2023-04-01T02:29:41;424.63;;;122.47;;
8407;SDS011;4241;48.452;9.216;2023-04-01T02:32:08;422.37;;;121.07;;
8407;SDS011;4241;48.452;9.216;2023-04-01T02:34:36;424.43;;;123.07;;
8407;SDS011;4241;48.452;9.216;2023-04-01T02:37:03;423.03;;;121.50;;
8407;SDS011;4241;48.452;9.216;2023-04-01T02:39:31;423.07;;;122.33;;
8407;SDS011;4241;48.452;9.216;2023-04-01T02:41:58;422.50;;;122.00;;
8407;SDS011;4241;48.452;9.216;2023-04-01T02:44:25;422.63;;;121.57;;
8407;SDS011;4241;48.452;9.216;2023-04-01T02:46:52;423.33;;;121.73;;
8407;SDS011;4241;48.452;9.216;2023-04-01T02:49:19;422.60;;;121.17;;
8407;SDS011;4241;48.452;9.216;2023-04-01T02:51:46;424.30;;;122.93;;
8407;SDS011;4241;48.452;9.216;2023-04-01T02:54:13;421.07;;;120.90;;
8407;SDS011;4241;48.452;9.216;2023-04-01T02:56:41;422.50;;;120.70;;
8407;SDS011;4241;48.452;9.216;2023-04-01T02:59:07;422.57;;;120.97;;
8407;SDS011;4241;48.452;9.216;2023-04-01T03:01:35;423.00;;;121.73;;
8407;SDS011;4241;48.452;9.216;2023-04-01T03:04:02;421.77;;;119.73;;
8407;SDS011;4241;48.452;9.216;2023-04-01T03:06:29;423.23;;;122.40;;
8407;SDS011;4241;48.452;9.216;2023-04-01T03:08:56;421.63;;;120.57;;
8407;SDS011;4241;48.452;9.216;2023-04-01T03:11:23;421.50;;;119.63;;
8407;SDS011;4241;48.452;9.216;2023-04-01T03:13:52;420.43;;;120.53;;
8407;SDS011;4241;48.452;9.216;2023-04-01T03:16:19;420.93;;;119.97;;
8407;SDS011;4241;48.452;9.216;2023-04-01T03:18:46;420.03;;;119.47;;
8407;SDS011;4241;48.452;9.216;2023-04-01T03:21:14;418.83;;;118.67;;
8407;SDS011;4241;48.452;9.216;2023-04-01T03:23:43;418.07;;;119.17;;
8407;SDS011;4241;48.452;9.216;2023-04-01T03:26:09;418.20;;;119.00;;
8407;SDS011;4241;48.452;9.216;2023-04-01T03:28:36;418.80;;;118.97;;
8407;SDS011;4241;48.452;9.216;2023-04-01T03:31:04;415.83;;;117.93;;
8407;SDS011;4241;48.452;9.216;2023-04-01T03:33:31;417.73;;;118.50;;
8407;SDS011;4241;48.452;9.216;2023-04-01T03:35:59;416.67;;;118.43;;
8407;SDS011;4241;48.452;9.216;2023-04-01T03:38:25;416.53;;;117.50;;
8407;SDS011;4241;48.452;9.216;2023-04-01T03:40:52;417.17;;;118.20;;
8407;SDS011;4241;48.452;9.216;2023-04-01T03:43:19;418.53;;;119.17;;
8407;SDS011;4241;48.452;9.216;2023-04-01T03:45:46;416.77;;;117.70;;
8407;SDS011;4241;48.452;9.216;2023-04-01T03:48:16;417.20;;;118.17;;
8407;SDS011;4241;48.452;9.216;2023-04-01T03:50:43;414.83;;;116.97;;
8407;SDS011;4241;48.452;9.216;2023-04-01T03:53:11;416.70;;;118.13;;
8407;SDS011;4241;48.452;9.216;2023-04-01T03:55:38;422.70;;;123.37;;
8407;SDS011;4241;48.452;9.216;2023-04-01T03:58:05;415.53;;;117.77;;
8407;SDS011;4241;48.452;9.216;2023-04-01T04:00:33;415.60;;;117.53;;
8407;SDS011;4241;48.452;9.216;2023-04-01T04:03:00;417.23;;;118.97;;
8407;SDS011;4241;48.452;9.216;2023-04-01T04:05:28;424.90;;;125.20;;
8407;SDS011;4241;48.452;9.216;2023-04-01T04:07:56;415.90;;;118.70;;
8407;SDS011;4241;48.452;9.216;2023-04-01T04:10:22;417.47;;;119.13;;
8407;SDS011;4241;48.452;9.216;2023-04-01T04:12:50;415.77;;;117.80;;
8407;SDS011;4241;48.452;9.216;2023-04-01T04:15:17;416.43;;;118.67;;
8407;SDS011;4241;48.452;9.216;2023-04-01T04:17:44;417.50;;;118.47;;
8407;SDS011;4241;48.452;9.216;2023-04-01T04:20:11;419.87;;;120.17;;
8407;SDS011;4241;48.452;9.216;2023-04-01T04:22:40;425.90;;;125.53;;
8407;SDS011;4241;48.452;9.216;2023-04-01T04:25:07;417.50;;;119.00;;
8407;SDS011;4241;48.452;9.216;2023-04-01T04:27:35;419.53;;;119.87;;
8407;SDS011;4241;48.452;9.216;2023-04-01T04:30:02;418.67;;;119.57;;
8407;SDS011;4241;48.452;9.216;2023-04-01T04:32:35;418.43;;;118.30;;
8407;SDS011;4241;48.452;9.216;2023-04-01T04:35:02;420.63;;;120.27;;
8407;SDS011;4241;48.452;9.216;2023-04-01T04:37:29;418.23;;;119.67;;
8407;SDS011;4241;48.452;9.216;2023-04-01T04:39:57;419.60;;;120.60;;
8407;SDS011;4241;48.452;9.216;2023-04-01T04:42:24;417.30;;;117.43;;
8407;SDS011;4241;48.452;9.216;2023-04-01T04:44:51;418.57;;;119.40;;
8407;SDS011;4241;48.452;9.216;2023-04-01T04:47:17;418.53;;;118.63;;
8407;SDS011;4241;48.452;9.216;2023-04-01T04:49:44;420.00;;;119.90;;
8407;SDS011;4241;48.452;9.216;2023-04-01T04:52:11;419.33;;;118.90;;
8407;SDS011;4241;48.452;9.216;2023-04-01T04:54:38;419.07;;;119.40;;
8407;SDS011;4241;48.452;9.216;2023-04-01T04:57:06;418.77;;;119.23;;
8407;SDS011;4241;48.452;9.216;2023-04-01T04:59:33;419.80;;;119.60;;
8407;SDS011;4241;48.452;9.216;2023-04-01T05:02:00;418.87;;;118.90;;
8407;SDS011;4241;48.452;9.216;2023-04-01T05:04:27;421.17;;;120.47;;
8407;SDS011;4241;48.452;9.216;2023-04-01T05:06:53;418.27;;;118.17;;
8407;SDS011;4241;48.452;9.216;2023-04-01T05:09:20;419.80;;;118.80;;
8407;SDS011;4241;48.452;9.216;2023-04-01T05:11:47;420.10;;;119.97;;
8407;SDS011;4241;48.452;9.216;2023-04-01T05:14:15;420.37;;;119.63;;
8407;SDS011;4241;48.452;9.216;2023-04-01T05:16:42;420.83;;;120.37;;
8407;SDS011;4241;48.452;9.216;2023-04-01T05:19:09;420.60;;;120.30;;
8407;SDS011;4241;48.452;9.216;2023-04-01T05:21:36;422.77;;;121.17;;
8407;SDS011;4241;48.452;9.216;2023-04-01T05:24:03;420.80;;;120.33;;
8407;SDS011;4241;48.452;9.216;2023-04-01T05:26:33;422.47;;;121.50;;
8407;SDS011;4241;48.452;9.216;2023-04-01T05:29:00;423.63;;;122.00;;
8407;SDS011;4241;48.452;9.216;2023-04-01T05:31:28;421.43;;;120.57;;
8407;SDS011;4241;48.452;9.216;2023-04-01T05:33:54;421.37;;;121.50;;
8407;SDS011;4241;48.452;9.216;2023-04-01T05:36:21;423.53;;;121.63;;
8407;SDS011;4241;48.452;9.216;2023-04-01T05:38:48;423.07;;;120.73;;
8407;SDS011;4241;48.452;9.216;2023-04-01T05:41:15;423.50;;;121.83;;
8407;SDS011;4241;48.452;9.216;2023-04-01T05:43:42;424.07;;;122.40;;
8407;SDS011;4241;48.452;9.216;2023-04-01T05:46:09;423.90;;;122.17;;
8407;SDS011;4241;48.452;9.216;2023-04-01T05:48:37;423.60;;;121.50;;
8407;SDS011;4241;48.452;9.216;2023-04-01T05:51:05;424.23;;;122.70;;
8407;SDS011;4241;48.452;9.216;2023-04-01T05:53:31;425.43;;;123.07;;
8407;SDS011;4241;48.452;9.216;2023-04-01T05:56:01;424.50;;;123.17;;
8407;SDS011;4241;48.452;9.216;2023-04-01T05:58:28;424.53;;;121.73;;
8407;SDS011;4241;48.452;9.216;2023-04-01T06:00:59;425.57;;;123.10;;
8407;SDS011;4241;48.452;9.216;2023-04-01T06:03:28;423.97;;;121.60;;
8407;SDS011;4241;48.452;9.216;2023-04-01T06:05:56;424.70;;;122.47;;
8407;SDS011;4241;48.452;9.216;2023-04-01T06:08:23;428.13;;;125.57;;
8407;SDS011;4241;48.452;9.216;2023-04-01T06:11:02;425.40;;;122.53;;
8407;SDS011;4241;48.452;9.216;2023-04-01T06:13:45;426.40;;;123.37;;
8407;SDS011;4241;48.452;9.216;2023-04-01T06:16:27;426.00;;;123.40;;
8407;SDS011;4241;48.452;9.216;2023-04-01T06:19:13;428.50;;;125.40;;
8407;SDS011;4241;48.452;9.216;2023-04-01T06:21:54;428.07;;;124.50;;
8407;SDS011;4241;48.452;9.216;2023-04-01T06:24:41;428.50;;;124.70;;
8407;SDS011;4241;48.452;9.216;2023-04-01T06:27:21;428.07;;;124.60;;
8407;SDS011;4241;48.452;9.216;2023-04-01T06:30:27;426.43;;;124.13;;
8407;SDS011;4241;48.452;9.216;2023-04-01T06:33:01;426.97;;;124.23;;
8407;SDS011;4241;48.452;9.216;2023-04-01T06:35:50;434.23;;;129.13;;
8407;SDS011;4241;48.452;9.216;2023-04-01T06:41:25;429.20;;;126.97;;
8407;SDS011;4241;48.452;9.216;2023-04-01T06:44:09;428.63;;;124.67;;
8407;SDS011;4241;48.452;9.216;2023-04-01T06:46:44;430.20;;;125.97;;
8407;SDS011;4241;48.452;9.216;2023-04-01T06:52:09;429.63;;;125.03;;
8407;SDS011;4241;48.452;9.216;2023-04-01T06:54:44;429.97;;;126.80;;
8407;SDS011;4241;48.452;9.216;2023-04-01T06:57:18;430.23;;;127.13;;
8407;SDS011;4241;48.452;9.216;2023-04-01T06:59:49;431.27;;;128.43;;
8407;SDS011;4241;48.452;9.216;2023-04-01T07:02:20;432.33;;;128.73;;
8407;SDS011;4241;48.452;9.216;2023-04-01T07:04:54;431.37;;;128.03;;
8407;SDS011;4241;48.452;9.216;2023-04-01T07:07:25;430.70;;;127.30;;
8407;SDS011;4241;48.452;9.216;2023-04-01T07:09:58;431.57;;;127.83;;
8407;SDS011;4241;48.452;9.216;2023-04-01T07:12:33;430.87;;;127.43;;
8407;SDS011;4241;48.452;9.216;2023-04-01T07:15:10;431.77;;;127.83;;
8407;SDS011;4241;48.452;9.216;2023-04-01T07:17:42;430.67;;;126.97;;
8407;SDS011;4241;48.452;9.216;2023-04-01T07:20:12;433.37;;;129.47;;
8407;SDS011;4241;48.452;9.216;2023-04-01T07:22:43;438.17;;;133.77;;
8407;SDS011;4241;48.452;9.216;2023-04-01T07:25:15;432.67;;;129.60;;
8407;SDS011;4241;48.452;9.216;2023-04-01T07:27:45;433.17;;;129.57;;
8407;SDS011;4241;48.452;9.216;2023-04-01T07:30:16;435.20;;;131.23;;
8407;SDS011;4241;48.452;9.216;2023-04-01T07:32:45;431.63;;;128.03;;
8407;SDS011;4241;48.452;9.216;2023-04-01T07:35:20;435.17;;;131.53;;
8407;SDS011;4241;48.452;9.216;2023-04-01T07:37:58;432.80;;;128.90;;
8407;SDS011;4241;48.452;9.216;2023-04-01T07:40:40;432.73;;;128.63;;
8407;SDS011;4241;48.452;9.216;2023-04-01T07:43:17;433.80;;;130.93;;
8407;SDS011;4241;48.452;9.216;2023-04-01T07:45:53;432.83;;;130.10;;
8407;SDS011;4241;48.452;9.216;2023-04-01T07:48:26;435.77;;;131.73;;
8407;SDS011;4241;48.452;9.216;2023-04-01T07:50:59;434.57;;;131.10;;
8407;SDS011;4241;48.452;9.216;2023-04-01T07:53:30;434.10;;;129.73;;
8407;SDS011;4241;48.452;9.216;2023-04-01T07:56:04;435.20;;;131.17;;
8407;SDS011;4241;48.452;9.216;2023-04-01T07:58:36;434.03;;;129.67;;
8407;SDS011;4241;48.452;9.216;2023-04-01T08:01:14;434.47;;;131.03;;
8407;SDS011;4241;48.452;9.216;2023-04-01T08:03:53;434.97;;;131.27;;
8407;SDS011;4241;48.452;9.216;2023-04-01T08:06:31;437.37;;;132.93;;
8407;SDS011;4241;48.452;9.216;2023-04-01T08:09:03;434.47;;;130.77;;
8407;SDS011;4241;48.452;9.216;2023-04-01T08:11:39;432.93;;;128.50;;
8407;SDS011;4241;48.452;9.216;2023-04-01T08:14:17;434.87;;;131.40;;
8407;SDS011;4241;48.452;9.216;2023-04-01T08:16:52;434.37;;;130.53;;
8407;SDS011;4241;48.452;9.216;2023-04-01T08:19:30;434.90;;;130.80;;
8407;SDS011;4241;48.452;9.216;2023-04-01T08:22:03;435.07;;;130.17;;
8407;SDS011;4241;48.452;9.216;2023-04-01T08:24:36;433.97;;;129.97;;
8407;SDS011;4241;48.452;9.216;2023-04-01T08:27:11;433.83;;;130.20;;
8407;SDS011;4241;48.452;9.216;2023-04-01T08:29:46;433.77;;;129.60;;
8407;SDS011;4241;48.452;9.216;2023-04-01T08:32:18;435.87;;;131.53;;
8407;SDS011;4241;48.452;9.216;2023-04-01T08:34:50;434.67;;;131.60;;
8407;SDS011;4241;48.452;9.216;2023-04-01T08:37:36;435.37;;;131.70;;
8407;SDS011;4241;48.452;9.216;2023-04-01T08:40:13;434.17;;;130.53;;
8407;SDS011;4241;48.452;9.216;2023-04-01T08:42:57;434.17;;;130.67;;
8407;SDS011;4241;48.452;9.216;2023-04-01T08:45:38;441.87;;;137.33;;
8407;SDS011;4241;48.452;9.216;2023-04-01T08:51:19;435.37;;;131.80;;
8407;SDS011;4241;48.452;9.216;2023-04-01T08:54:25;434.53;;;130.63;;
8407;SDS011;4241;48.452;9.216;2023-04-01T08:57:10;434.10;;;130.47;;
8407;SDS011;4241;48.452;9.216;2023-04-01T08:59:52;435.40;;;131.53;;
8407;SDS011;4241;48.452;9.216;2023-04-01T09:02:26;436.57;;;132.40;;
8407;SDS011;4241;48.452;9.216;2023-04-01T09:05:26;435.07;;;131.30;;
8407;SDS011;4241;48.452;9.216;2023-04-01T09:08:11;433.70;;;130.97;;
8407;SDS011;4241;48.452;9.216;2023-04-01T09:10:50;434.50;;;131.17;;
8407;SDS011;4241;48.452;9.216;2023-04-01T09:13:31;435.27;;;130.63;;
8407;SDS011;4241;48.452;9.216;2023-04-01T09:19:25;434.23;;;131.00;;
8407;SDS011;4241;48.452;9.216;2023-04-01T09:25:26;433.50;;;131.33;;
8407;SDS011;4241;48.452;9.216;2023-04-01T09:28:12;434.37;;;131.03;;
8407;SDS011;4241;48.452;9.216;2023-04-01T09:36:45;434.20;;;130.03;;
8407;SDS011;4241;48.452;9.216;2023-04-01T09:39:20;434.90;;;131.13;;
8407;SDS011;4241;48.452;9.216;2023-04-01T09:45:09;434.93;;;130.90;;
8407;SDS011;4241;48.452;9.216;2023-04-01T09:47:52;434.50;;;130.87;;
8407;SDS011;4241;48.452;9.216;2023-04-01T09:50:35;434.37;;;130.93;;
8407;SDS011;4241;48.452;9.216;2023-04-01T09:53:14;434.80;;;131.33;;
8407;SDS011;4241;48.452;9.216;2023-04-01T09:56:03;437.73;;;132.90;;
8407;SDS011;4241;48.452;9.216;2023-04-01T10:02:20;434.10;;;130.37;;
8407;SDS011;4241;48.452;9.216;2023-04-01T10:08:32;436.13;;;132.33;;
8407;SDS011;4241;48.452;9.216;2023-04-01T10:11:15;438.57;;;134.30;;
8407;SDS011;4241;48.452;9.216;2023-04-01T10:17:14;436.90;;;132.87;;
8407;SDS011;4241;48.452;9.216;2023-04-01T10:20:12;435.63;;;132.30;;
8407;SDS011;4241;48.452;9.216;2023-04-01T10:23:10;438.07;;;132.80;;
8407;SDS011;4241;48.452;9.216;2023-04-01T10:35:10;432.53;;;129.13;;
8407;SDS011;4241;48.452;9.216;2023-04-01T10:38:15;431.07;;;128.17;;
8407;SDS011;4241;48.452;9.216;2023-04-01T10:44:11;431.23;;;128.40;;
8407;SDS011;4241;48.452;9.216;2023-04-01T10:50:25;432.90;;;129.33;;
8407;SDS011;4241;48.452;9.216;2023-04-01T10:53:34;431.67;;;128.97;;
8407;SDS011;4241;48.452;9.216;2023-04-01T10:56:29;433.90;;;131.17;;
8407;SDS011;4241;48.452;9.216;2023-04-01T11:05:29;436.90;;;133.50;;
8407;SDS011;4241;48.452;9.216;2023-04-01T11:11:30;434.47;;;130.97;;
8407;SDS011;4241;48.452;9.216;2023-04-01T11:14:44;434.13;;;130.90;;
8407;SDS011;4241;48.452;9.216;2023-04-01T11:17:42;435.40;;;132.07;;
8407;SDS011;4241;48.452;9.216;2023-04-01T11:20:40;435.00;;;132.17;;
8407;SDS011;4241;48.452;9.216;2023-04-01T11:23:33;438.00;;;133.87;;
8407;SDS011;4241;48.452;9.216;2023-04-01T11:26:09;439.07;;;134.40;;
8407;SDS011;4241;48.452;9.216;2023-04-01T11:31:54;436.50;;;133.63;;
8407;SDS011;4241;48.452;9.216;2023-04-01T11:34:30;439.23;;;135.37;;
8407;SDS011;4241;48.452;9.216;2023-04-01T11:37:16;438.90;;;134.80;;
8407;SDS011;4241;48.452;9.216;2023-04-01T11:39:59;439.00;;;134.90;;
8407;SDS011;4241;48.452;9.216;2023-04-01T11:42:38;437.47;;;134.10;;
8407;SDS011;4241;48.452;9.216;2023-04-01T11:45:13;438.57;;;134.57;;
8407;SDS011;4241;48.452;9.216;2023-04-01T11:47:52;437.27;;;133.70;;
8407;SDS011;4241;48.452;9.216;2023-04-01T11:50:31;437.60;;;133.97;;
8407;SDS011;4241;48.452;9.216;2023-04-01T11:53:12;438.47;;;133.20;;
8407;SDS011;4241;48.452;9.216;2023-04-01T11:56:02;436.27;;;133.27;;
8407;SDS011;4241;48.452;9.216;2023-04-01T11:58:50;435.00;;;132.07;;
8407;SDS011;4241;48.452;9.216;2023-04-01T12:01:42;434.70;;;130.87;;
8407;SDS011;4241;48.452;9.216;2023-04-01T12:07:10;437.13;;;132.90;;
8407;SDS011;4241;48.452;9.216;2023-04-01T12:09:51;438.57;;;134.23;;
8407;SDS011;4241;48.452;9.216;2023-04-01T12:12:27;440.10;;;135.53;;
8407;SDS011;4241;48.452;9.216;2023-04-01T12:15:02;437.50;;;133.57;;
8407;SDS011;4241;48.452;9.216;2023-04-01T12:17:43;438.03;;;135.33;;
8407;SDS011;4241;48.452;9.216;2023-04-01T12:23:15;438.77;;;134.80;;
8407;SDS011;4241;48.452;9.216;2023-04-01T12:26:00;437.40;;;134.20;;
8407;SDS011;4241;48.452;9.216;2023-04-01T12:28:41;438.07;;;134.47;;
8407;SDS011;4241;48.452;9.216;2023-04-01T12:31:16;437.57;;;133.00;;
8407;SDS011;4241;48.452;9.216;2023-04-01T12:33:54;436.23;;;132.30;;
8407;SDS011;4241;48.452;9.216;2023-04-01T12:36:40;439.07;;;134.50;;
8407;SDS011;4241;48.452;9.216;2023-04-01T12:39:33;437.77;;;133.77;;
8407;SDS011;4241;48.452;9.216;2023-04-01T12:42:17;436.43;;;132.67;;
8407;SDS011;4241;48.452;9.216;2023-04-01T12:45:00;437.47;;;133.83;;
8407;SDS011;4241;48.452;9.216;2023-04-01T12:53:47;435.87;;;131.73;;
8407;SDS011;4241;48.452;9.216;2023-04-01T12:56:38;436.87;;;133.57;;
8407;SDS011;4241;48.452;9.216;2023-04-01T12:59:21;437.30;;;133.10;;
8407;SDS011;4241;48.452;9.216;2023-04-01T13:02:00;436.03;;;132.53;;
8407;SDS011;4241;48.452;9.216;2023-04-01T13:04:51;437.63;;;133.23;;
8407;SDS011;4241;48.452;9.216;2023-04-01T13:07:45;436.17;;;133.13;;
8407;SDS011;4241;48.452;9.216;2023-04-01T13:10:37;436.27;;;132.50;;
8407;SDS011;4241;48.452;9.216;2023-04-01T13:16:20;438.57;;;135.40;;
8407;SDS011;4241;48.452;9.216;2023-04-01T13:18:54;440.00;;;136.77;;
8407;SDS011;4241;48.452;9.216;2023-04-01T13:21:31;438.67;;;134.60;;
8407;SDS011;4241;48.452;9.216;2023-04-01T13:24:08;436.73;;;132.50;;
8407;SDS011;4241;48.452;9.216;2023-04-01T13:26:45;438.73;;;135.00;;
8407;SDS011;4241;48.452;9.216;2023-04-01T13:29:20;441.00;;;136.97;;
8407;SDS011;4241;48.452;9.216;2023-04-01T13:31:59;440.90;;;136.80;;
8407;SDS011;4241;48.452;9.216;2023-04-01T13:34:38;439.97;;;136.53;;
8407;SDS011;4241;48.452;9.216;2023-04-01T13:37:17;441.80;;;138.40;;
8407;SDS011;4241;48.452;9.216;2023-04-01T13:39:55;442.53;;;138.83;;
8407;SDS011;4241;48.452;9.216;2023-04-01T13:42:29;438.03;;;134.50;;
8407;SDS011;4241;48.452;9.216;2023-04-01T13:45:00;441.27;;;137.63;;
8407;SDS011;4241;48.452;9.216;2023-04-01T13:47:53;440.07;;;136.27;;
8407;SDS011;4241;48.452;9.216;2023-04-01T13:53:43;437.70;;;133.57;;
8407;SDS011;4241;48.452;9.216;2023-04-01T13:56:34;440.73;;;135.83;;
8407;SDS011;4241;48.452;9.216;2023-04-01T13:59:25;439.87;;;136.10;;
8407;SDS011;4241;48.452;9.216;2023-04-01T14:05:18;438.00;;;133.93;;
8407;SDS011;4241;48.452;9.216;2023-04-01T14:08:00;436.90;;;133.47;;
8407;SDS011;4241;48.452;9.216;2023-04-01T14:10:37;439.20;;;136.03;;
8407;SDS011;4241;48.452;9.216;2023-04-01T14:13:09;437.40;;;134.23;;
8407;SDS011;4241;48.452;9.216;2023-04-01T14:15:49;437.77;;;134.20;;
8407;SDS011;4241;48.452;9.216;2023-04-01T14:18:33;444.97;;;139.63;;
8407;SDS011;4241;48.452;9.216;2023-04-01T14:21:13;437.90;;;134.67;;
8407;SDS011;4241;48.452;9.216;2023-04-01T14:23:54;437.90;;;134.73;;
8407;SDS011;4241;48.452;9.216;2023-04-01T14:26:56;439.17;;;136.40;;
8407;SDS011;4241;48.452;9.216;2023-04-01T14:29:44;438.17;;;134.20;;
8407;SDS011;4241;48.452;9.216;2023-04-01T14:32:24;437.17;;;134.20;;
8407;SDS011;4241;48.452;9.216;2023-04-01T14:35:05;438.70;;;135.27;;
8407;SDS011;4241;48.452;9.216;2023-04-01T14:37:54;437.13;;;133.70;;
8407;SDS011;4241;48.452;9.216;2023-04-01T14:40:28;436.87;;;133.03;;
8407;SDS011;4241;48.452;9.216;2023-04-01T14:43:27;437.33;;;134.40;;
8407;SDS011;4241;48.452;9.216;2023-04-01T14:49:20;438.80;;;134.13;;
8407;SDS011;4241;48.452;9.216;2023-04-01T14:51:48;437.03;;;133.43;;
8407;SDS011;4241;48.452;9.216;2023-04-01T14:54:19;437.50;;;133.23;;
8407;SDS011;4241;48.452;9.216;2023-04-01T14:57:03;434.47;;;130.20;;
8407;SDS011;4241;48.452;9.216;2023-04-01T14:59:39;439.07;;;134.37;;
8407;SDS011;4241;48.452;9.216;2023-04-01T15:02:10;436.77;;;133.23;;
8407;SDS011;4241;48.452;9.216;2023-04-01T15:04:53;436.50;;;133.10;;
8407;SDS011;4241;48.452;9.216;2023-04-01T15:07:38;436.07;;;132.23;;
8407;SDS011;4241;48.452;9.216;2023-04-01T15:10:21;437.23;;;133.07;;
8407;SDS011;4241;48.452;9.216;2023-04-01T15:13:10;436.33;;;131.97;;
8407;SDS011;4241;48.452;9.216;2023-04-01T15:15:45;439.27;;;135.37;;
8407;SDS011;4241;48.452;9.216;2023-04-01T15:18:21;437.53;;;133.63;;
8407;SDS011;4241;48.452;9.216;2023-04-01T15:21:06;437.87;;;133.90;;
8407;SDS011;4241;48.452;9.216;2023-04-01T15:23:46;436.13;;;131.80;;
8407;SDS011;4241;48.452;9.216;2023-04-01T15:26:28;436.97;;;132.60;;
8407;SDS011;4241;48.452;9.216;2023-04-01T15:29:15;436.73;;;133.37;;
8407;SDS011;4241;48.452;9.216;2023-04-01T15:31:59;437.40;;;132.87;;
8407;SDS011;4241;48.452;9.216;2023-04-01T15:34:35;435.80;;;132.77;;
8407;SDS011;4241;48.452;9.216;2023-04-01T15:37:08;436.83;;;132.10;;
8407;SDS011;4241;48.452;9.216;2023-04-01T15:39:43;434.13;;;131.77;;
8407;SDS011;4241;48.452;9.216;2023-04-01T15:42:34;435.37;;;130.93;;
8407;SDS011;4241;48.452;9.216;2023-04-01T15:45:14;435.13;;;131.73;;
8407;SDS011;4241;48.452;9.216;2023-04-01T15:47:45;434.67;;;130.90;;
8407;SDS011;4241;48.452;9.216;2023-04-01T15:50:26;438.33;;;133.87;;
8407;SDS011;4241;48.452;9.216;2023-04-01T15:53:06;435.57;;;130.90;;
8407;SDS011;4241;48.452;9.216;2023-04-01T15:55:44;434.33;;;130.53;;
8407;SDS011;4241;48.452;9.216;2023-04-01T15:58:20;436.03;;;132.20;;
8407;SDS011;4241;48.452;9.216;2023-04-01T16:01:02;437.23;;;132.97;;
8407;SDS011;4241;48.452;9.216;2023-04-01T16:03:40;435.30;;;131.70;;
8407;SDS011;4241;48.452;9.216;2023-04-01T16:06:22;434.93;;;131.50;;
8407;SDS011;4241;48.452;9.216;2023-04-01T16:09:07;434.20;;;130.43;;
8407;SDS011;4241;48.452;9.216;2023-04-01T16:11:46;433.40;;;129.07;;
8407;SDS011;4241;48.452;9.216;2023-04-01T16:14:25;435.13;;;131.13;;
8407;SDS011;4241;48.452;9.216;2023-04-01T16:17:03;433.63;;;130.53;;
8407;SDS011;4241;48.452;9.216;2023-04-01T16:19:41;434.00;;;130.70;;
8407;SDS011;4241;48.452;9.216;2023-04-01T16:22:16;434.23;;;131.37;;
8407;SDS011;4241;48.452;9.216;2023-04-01T16:24:51;434.40;;;130.60;;
8407;SDS011;4241;48.452;9.216;2023-04-01T16:27:27;432.57;;;130.10;;
8407;SDS011;4241;48.452;9.216;2023-04-01T16:30:03;435.23;;;131.27;;
8407;SDS011;4241;48.452;9.216;2023-04-01T16:32:53;434.33;;;130.90;;
8407;SDS011;4241;48.452;9.216;2023-04-01T16:35:29;433.83;;;130.73;;
8407;SDS011;4241;48.452;9.216;2023-04-01T16:38:07;433.37;;;129.10;;
8407;SDS011;4241;48.452;9.216;2023-04-01T16:40:42;433.70;;;131.07;;
8407;SDS011;4241;48.452;9.216;2023-04-01T16:43:16;435.13;;;131.50;;